createdAt,value
2023-03-03T00:01:26.265Z,101209.65
2023-03-03T00:03:58.711Z,101206.35
2023-03-03T00:06:31.653Z,101199.36
2023-03-03T00:09:04.595Z,101200.23
2023-03-03T00:11:37.030Z,101200.54
2023-03-03T00:14:23.393Z,101196.84
2023-03-03T00:16:56.522Z,101200.16
2023-03-03T00:19:31.364Z,101197.33
2023-03-03T00:22:02.155Z,101193.80
2023-03-03T00:24:39.874Z,101196.52
2023-03-03T00:27:25.271Z,101178.83
2023-03-03T00:30:00.466Z,101203.19
2023-03-03T00:32:43.628Z,101195.63
2023-03-03T00:35:31.609Z,101195.19
2023-03-03T00:38:18.358Z,101197.81
2023-03-03T00:40:53.862Z,101193.20
2023-03-03T00:43:35.887Z,101195.86
2023-03-03T00:46:10.102Z,101184.30
2023-03-03T00:48:50.058Z,101182.56
2023-03-03T00:51:31.747Z,101177.20
2023-03-03T00:54:10.830Z,101186.98
2023-03-03T00:56:44.013Z,101184.09
2023-03-03T00:59:16.804Z,101178.46
2023-03-03T01:01:49.344Z,101192.06
2023-03-03T01:04:21.933Z,101187.43
2023-03-03T01:06:54.436Z,101159.63
2023-03-03T01:09:26.870Z,101175.30
2023-03-03T01:11:59.879Z,101172.13
2023-03-03T01:14:32.882Z,101161.18
2023-03-03T01:17:05.900Z,101145.23
2023-03-03T01:19:38.382Z,101160.52
2023-03-03T01:22:10.854Z,101153.89
2023-03-03T01:24:43.365Z,101168.03
2023-03-03T01:27:16.664Z,101164.04
2023-03-03T01:29:49.563Z,101163.50
2023-03-03T01:32:23.131Z,101151.35
2023-03-03T01:34:56.101Z,101145.89
2023-03-03T01:37:28.584Z,101145.91
2023-03-03T01:40:01.015Z,101146.65
2023-03-03T01:42:33.521Z,101149.02
2023-03-03T01:45:18.338Z,101147.33
2023-03-03T01:47:56.106Z,101146.74
2023-03-03T01:50:37.192Z,101150.58
2023-03-03T01:53:16.934Z,101152.84
2023-03-03T01:55:53.126Z,101148.84
2023-03-03T01:58:30.646Z,101140.17
2023-03-03T02:01:07.345Z,101141.39
2023-03-03T02:03:39.866Z,101137.63
2023-03-03T02:06:15.609Z,101135.96
2023-03-03T02:08:53.609Z,101133.63
2023-03-03T02:11:27.893Z,101132.79
2023-03-03T02:14:00.320Z,101115.88
2023-03-03T02:16:33.203Z,101142.54
2023-03-03T02:19:14.596Z,101137.19
2023-03-03T02:21:47.063Z,101142.38
2023-03-03T02:24:28.753Z,101142.72
2023-03-03T02:27:01.581Z,101151.25
2023-03-03T02:29:34.789Z,101158.42
2023-03-03T02:32:09.261Z,101158.73
2023-03-03T02:34:53.394Z,101157.00
2023-03-03T02:37:26.788Z,101156.94
2023-03-03T02:39:59.166Z,101151.09
2023-03-03T02:42:33.340Z,101146.85
2023-03-03T02:45:06.405Z,101148.08
2023-03-03T02:47:38.865Z,101147.42
2023-03-03T02:50:12.820Z,101149.73
2023-03-03T02:52:45.326Z,101156.98
2023-03-03T02:55:18.171Z,101161.14
2023-03-03T02:57:50.632Z,101165.35
2023-03-03T03:00:23.633Z,101161.88
2023-03-03T03:02:56.620Z,101165.69
2023-03-03T03:05:29.781Z,101158.67
2023-03-03T03:08:02.425Z,101160.44
2023-03-03T03:10:35.769Z,101151.61
2023-03-03T03:13:08.235Z,101144.70
2023-03-03T03:15:40.801Z,101170.55
2023-03-03T03:18:13.739Z,101171.96
2023-03-03T03:20:48.588Z,101175.35
2023-03-03T03:23:22.202Z,101165.60
2023-03-03T03:25:54.777Z,101153.97
2023-03-03T03:28:30.539Z,101164.14
2023-03-03T03:31:03.640Z,101152.41
2023-03-03T03:33:36.779Z,101153.05
2023-03-03T03:36:12.244Z,101138.81
2023-03-03T03:38:44.902Z,101142.63
2023-03-03T03:41:17.580Z,101144.63
2023-03-03T03:43:49.973Z,101140.21
2023-03-03T03:46:22.625Z,101132.17
2023-03-03T03:48:55.329Z,101134.39
2023-03-03T03:51:27.863Z,101142.55
2023-03-03T03:54:00.482Z,101141.33
2023-03-03T03:56:33.013Z,101140.51
2023-03-03T03:59:08.721Z,101141.23
2023-03-03T04:01:44.425Z,101131.50
2023-03-03T04:04:23.252Z,101129.59
2023-03-03T04:06:57.457Z,101133.20
2023-03-03T04:09:33.576Z,101125.95
2023-03-03T04:12:10.019Z,101123.82
2023-03-03T04:14:43.393Z,101122.95
2023-03-03T04:17:19.506Z,101125.16
2023-03-03T04:19:57.054Z,101120.42
2023-03-03T04:22:30.458Z,101119.94
2023-03-03T04:25:05.467Z,101113.94
2023-03-03T04:27:43.440Z,101105.95
2023-03-03T04:30:18.515Z,101104.52
2023-03-03T04:32:53.303Z,101108.21
2023-03-03T04:35:27.839Z,101090.61
2023-03-03T04:38:05.069Z,101110.42
2023-03-03T04:40:37.746Z,101111.98
2023-03-03T04:43:10.679Z,101107.39
2023-03-03T04:45:43.337Z,101099.20
2023-03-03T04:48:15.790Z,101102.66
2023-03-03T04:50:48.510Z,101106.46
2023-03-03T04:53:22.130Z,101110.63
2023-03-03T04:55:57.683Z,101107.16
2023-03-03T04:58:31.125Z,101105.02
2023-03-03T05:01:03.695Z,101104.34
2023-03-03T05:03:37.146Z,101103.09
2023-03-03T05:06:11.686Z,101104.55
2023-03-03T05:08:44.012Z,101106.70
2023-03-03T05:11:16.549Z,101110.85
2023-03-03T05:13:48.913Z,101112.84
2023-03-03T05:16:21.497Z,101104.38
2023-03-03T05:18:53.933Z,101102.83
2023-03-03T05:21:26.332Z,101102.69
2023-03-03T05:23:58.826Z,101112.09
2023-03-03T05:26:31.331Z,101109.11
2023-03-03T05:29:03.675Z,101107.32
2023-03-03T05:31:36.558Z,101108.56
2023-03-03T05:34:09.569Z,101102.05
2023-03-03T05:36:42.376Z,101104.33
2023-03-03T05:39:14.951Z,101113.92
2023-03-03T05:41:47.597Z,101114.33
2023-03-03T05:44:20.792Z,101117.61
2023-03-03T05:46:53.299Z,101113.58
2023-03-03T05:49:25.939Z,101116.03
2023-03-03T05:51:59.330Z,101129.24
2023-03-03T05:54:31.891Z,101140.46
2023-03-03T05:57:04.318Z,101152.05
2023-03-03T05:59:36.715Z,101162.38
2023-03-03T06:02:09.180Z,101169.15
2023-03-03T06:04:41.846Z,101158.92
2023-03-03T06:07:14.569Z,101164.40
2023-03-03T06:09:47.149Z,101164.92
2023-03-03T06:12:20.568Z,101155.84
2023-03-03T06:14:53.277Z,101136.36
2023-03-03T06:17:25.720Z,101129.81
2023-03-03T06:19:58.108Z,101132.39
2023-03-03T06:22:30.557Z,101132.88
2023-03-03T06:25:03.089Z,101133.74
2023-03-03T06:27:36.557Z,101145.27
2023-03-03T06:30:11.079Z,101144.56
2023-03-03T06:32:43.981Z,101156.42
2023-03-03T06:35:18.386Z,101150.76
2023-03-03T06:37:51.798Z,101152.30
2023-03-03T06:40:28.994Z,101154.23
2023-03-03T06:43:03.311Z,101155.94
2023-03-03T06:45:36.294Z,101156.84
2023-03-03T06:48:09.357Z,101159.18
2023-03-03T06:50:42.570Z,101155.89
2023-03-03T06:53:17.122Z,101158.31
2023-03-03T06:55:49.753Z,101154.14
2023-03-03T06:58:24.346Z,101159.48
2023-03-03T07:00:59.445Z,101157.83
2023-03-03T07:03:36.134Z,101152.33
2023-03-03T07:06:20.368Z,101155.91
2023-03-03T07:08:53.420Z,101158.48
2023-03-03T07:11:26.508Z,101173.79
2023-03-03T07:13:58.972Z,101168.83
2023-03-03T07:16:31.503Z,101162.28
2023-03-03T07:19:06.431Z,101161.77
2023-03-03T07:21:39.834Z,101165.48
2023-03-03T07:24:26.328Z,101165.52
2023-03-03T07:27:10.639Z,101166.52
2023-03-03T07:29:43.277Z,101166.05
2023-03-03T07:32:26.736Z,101173.46
2023-03-03T07:34:59.993Z,101175.30
2023-03-03T07:37:39.273Z,101181.70
2023-03-03T07:40:32.669Z,101174.44
2023-03-03T07:43:18.330Z,101180.02
2023-03-03T07:45:51.493Z,101186.55
2023-03-03T07:48:31.182Z,101189.18
2023-03-03T07:51:07.549Z,101185.14
2023-03-03T07:53:40.122Z,101197.33
2023-03-03T07:56:23.850Z,101196.75
2023-03-03T07:58:57.544Z,101198.06
2023-03-03T08:01:42.783Z,101192.19
2023-03-03T08:04:26.284Z,101182.42
2023-03-03T08:07:00.434Z,101181.05
2023-03-03T08:09:51.263Z,101186.85
2023-03-03T08:12:38.812Z,101186.89
2023-03-03T08:15:26.385Z,101187.53
2023-03-03T08:18:02.517Z,101191.84
2023-03-03T08:20:46.397Z,101202.73
2023-03-03T08:23:20.267Z,101207.36
2023-03-03T08:25:53.560Z,101211.29
2023-03-03T08:28:26.077Z,101209.30
2023-03-03T08:31:14.355Z,101208.86
2023-03-03T08:33:50.698Z,101208.44
2023-03-03T08:36:23.354Z,101207.19
2023-03-03T08:38:55.731Z,101209.86
2023-03-03T08:41:28.697Z,101207.98
2023-03-03T08:44:01.379Z,101206.79
2023-03-03T08:46:33.857Z,101207.39
2023-03-03T08:49:06.268Z,101209.56
2023-03-03T08:51:38.942Z,101206.20
2023-03-03T08:54:12.167Z,101203.92
2023-03-03T08:56:44.688Z,101197.71
2023-03-03T08:59:17.016Z,101197.02
2023-03-03T09:01:49.497Z,101200.73
2023-03-03T09:04:21.958Z,101198.66
2023-03-03T09:06:54.416Z,101190.80
2023-03-03T09:09:27.018Z,101185.13
2023-03-03T09:12:04.702Z,101184.86
2023-03-03T09:14:37.634Z,101186.30
2023-03-03T09:17:25.418Z,101190.53
2023-03-03T09:19:59.871Z,101194.80
2023-03-03T09:22:35.731Z,101196.17
2023-03-03T09:25:22.998Z,101195.77
2023-03-03T09:27:57.555Z,101193.92
2023-03-03T09:30:44.252Z,101194.23
2023-03-03T09:33:41.627Z,101194.98
2023-03-03T09:36:24.977Z,101199.40
2023-03-03T09:38:58.861Z,101200.95
2023-03-03T09:42:05.788Z,101184.34
2023-03-03T09:45:06.348Z,101199.98
2023-03-03T09:48:01.112Z,101190.01
2023-03-03T09:50:45.000Z,101197.64
2023-03-03T09:53:33.107Z,101202.72
2023-03-03T09:56:10.713Z,101202.72
2023-03-03T09:58:56.738Z,101197.70
2023-03-03T10:01:42.825Z,101201.69
2023-03-03T10:04:37.648Z,101203.52
2023-03-03T10:07:27.237Z,101196.68
2023-03-03T10:10:26.416Z,101200.52
2023-03-03T10:13:10.858Z,101194.16
2023-03-03T10:15:55.773Z,101204.81
2023-03-03T10:18:38.346Z,101201.98
2023-03-03T10:21:18.683Z,101198.78
2023-03-03T10:24:01.985Z,101203.64
2023-03-03T10:27:12.504Z,101199.54
2023-03-03T10:29:59.442Z,101194.90
2023-03-03T10:32:41.486Z,101197.73
2023-03-03T10:35:37.424Z,101196.18
2023-03-03T10:38:25.748Z,101200.80
2023-03-03T10:41:09.447Z,101203.86
2023-03-03T10:44:03.436Z,101208.30
2023-03-03T10:46:59.040Z,101210.02
2023-03-03T10:49:39.420Z,101210.03
2023-03-03T10:52:31.687Z,101202.41
2023-03-03T10:55:26.491Z,101204.17
2023-03-03T10:58:15.319Z,101201.47
2023-03-03T11:00:54.085Z,101199.48
2023-03-03T11:04:07.306Z,101201.83
2023-03-03T11:06:47.630Z,101192.73
2023-03-03T11:09:37.836Z,101185.75
2023-03-03T11:12:25.791Z,101184.39
2023-03-03T11:15:18.408Z,101171.54
2023-03-03T11:18:04.460Z,101165.53
2023-03-03T11:20:44.253Z,101165.36
2023-03-03T11:23:32.194Z,101156.67
2023-03-03T11:26:15.691Z,101156.75
2023-03-03T11:29:04.083Z,101148.02
2023-03-03T11:31:44.007Z,101139.60
2023-03-03T11:34:36.171Z,101131.78
2023-03-03T11:37:12.486Z,101146.91
2023-03-03T11:39:46.845Z,101145.06
2023-03-03T11:42:26.314Z,101148.17
2023-03-03T11:45:02.674Z,101140.08
2023-03-03T11:47:42.060Z,101141.43
2023-03-03T11:50:22.601Z,101144.91
2023-03-03T11:53:03.554Z,101139.17
2023-03-03T11:55:39.705Z,101141.16
2023-03-03T11:58:20.622Z,101139.65
2023-03-03T12:00:59.095Z,101138.80
2023-03-03T12:03:36.967Z,101135.27
2023-03-03T12:06:22.899Z,101132.16
2023-03-03T12:09:14.670Z,101129.48
2023-03-03T12:11:54.925Z,101126.24
2023-03-03T12:14:47.672Z,101123.02
2023-03-03T12:17:31.997Z,101124.80
2023-03-03T12:20:11.032Z,101123.06
2023-03-03T12:23:04.534Z,101125.42
2023-03-03T12:25:42.796Z,101122.67
2023-03-03T12:28:20.335Z,101120.25
2023-03-03T12:31:17.211Z,101116.56
2023-03-03T12:33:57.148Z,101121.64
2023-03-03T12:36:48.182Z,101116.21
2023-03-03T12:39:36.581Z,101112.87
2023-03-03T12:42:16.673Z,101111.98
2023-03-03T12:44:53.187Z,101111.36
2023-03-03T12:47:30.607Z,101106.73
2023-03-03T12:50:19.820Z,101107.67
2023-03-03T12:53:02.882Z,101113.75
2023-03-03T12:55:45.726Z,101111.58
2023-03-03T12:58:26.955Z,101113.67
2023-03-03T13:01:10.056Z,101112.23
2023-03-03T13:03:55.685Z,101112.02
2023-03-03T13:06:32.893Z,101110.75
2023-03-03T13:09:26.755Z,101106.75
2023-03-03T13:12:19.514Z,101110.31
2023-03-03T13:14:56.240Z,101108.90
2023-03-03T13:17:33.601Z,101113.33
2023-03-03T13:20:15.516Z,101112.94
2023-03-03T13:22:53.531Z,101114.30
2023-03-03T13:25:48.148Z,101112.49
2023-03-03T13:28:28.954Z,101104.77
2023-03-03T13:31:09.955Z,101094.79
2023-03-03T13:33:50.144Z,101084.54
2023-03-03T13:36:27.110Z,101099.75
2023-03-03T13:39:05.850Z,101104.72
2023-03-03T13:41:46.968Z,101107.38
2023-03-03T13:44:26.119Z,101101.96
2023-03-03T13:47:13.467Z,101099.01
2023-03-03T13:50:01.814Z,101091.54
2023-03-03T13:52:38.795Z,101089.95
2023-03-03T13:55:22.457Z,101093.15
2023-03-03T13:58:01.560Z,101087.20
2023-03-03T14:00:49.232Z,101090.70
2023-03-03T14:03:51.284Z,101087.40
2023-03-03T14:06:27.537Z,101084.96
2023-03-03T14:09:33.017Z,101081.42
2023-03-03T14:12:14.305Z,101059.23
2023-03-03T14:14:56.879Z,101074.46
2023-03-03T14:17:35.049Z,101069.15
2023-03-03T14:20:17.798Z,101066.23
2023-03-03T14:22:58.244Z,101060.32
2023-03-03T14:25:55.487Z,101045.23
2023-03-03T14:28:30.750Z,101061.23
2023-03-03T14:31:22.865Z,101039.13
2023-03-03T14:34:04.012Z,101055.94
2023-03-03T14:36:40.960Z,101055.23
2023-03-03T14:39:31.885Z,101049.21
2023-03-03T14:42:06.869Z,101052.55
2023-03-03T14:44:55.766Z,101048.96
2023-03-03T14:47:30.644Z,101053.03
2023-03-03T14:50:24.758Z,101053.08
2023-03-03T14:53:10.001Z,101046.98
2023-03-03T14:55:44.740Z,101042.62
2023-03-03T14:58:29.326Z,101043.54
2023-03-03T15:01:22.804Z,101036.13
2023-03-03T15:04:02.481Z,101041.98
2023-03-03T15:06:41.353Z,101025.48
2023-03-03T15:09:41.297Z,101041.90
2023-03-03T15:12:26.526Z,101024.17
2023-03-03T15:15:15.263Z,101032.50
2023-03-03T15:17:59.143Z,101034.37
2023-03-03T15:20:40.686Z,101030.00
2023-03-03T15:23:34.891Z,101031.67
2023-03-03T15:26:16.442Z,101026.30
2023-03-03T15:29:00.604Z,101012.79
2023-03-03T15:31:42.098Z,101021.94
2023-03-03T15:34:27.376Z,101021.38
2023-03-03T15:37:07.462Z,101021.41
2023-03-03T15:39:48.443Z,101026.23
2023-03-03T15:42:28.370Z,101020.17
2023-03-03T15:45:11.526Z,101012.02
2023-03-03T15:48:23.616Z,101014.96
2023-03-03T15:51:04.722Z,101018.84
2023-03-03T15:54:07.078Z,101016.16
2023-03-03T15:56:48.214Z,101021.00
2023-03-03T15:59:34.782Z,101017.54
2023-03-03T16:02:23.513Z,101015.37
2023-03-03T16:05:04.102Z,101009.80
2023-03-03T16:07:48.091Z,101013.39
2023-03-03T16:10:30.807Z,101013.46
2023-03-03T16:13:21.308Z,101016.09
2023-03-03T16:16:06.079Z,101011.21
2023-03-03T16:18:53.808Z,101013.02
2023-03-03T16:21:43.026Z,101014.14
2023-03-03T16:24:29.796Z,101007.70
2023-03-03T16:27:09.752Z,100997.86
2023-03-03T16:29:56.478Z,101014.48
2023-03-03T16:32:39.234Z,101013.98
2023-03-03T16:35:24.473Z,100998.65
2023-03-03T16:38:03.285Z,101011.78
2023-03-03T16:40:44.224Z,101009.78
2023-03-03T16:43:24.632Z,101013.67
2023-03-03T16:46:00.394Z,101010.88
2023-03-03T16:48:45.827Z,100994.67
2023-03-03T16:51:37.561Z,101005.33
2023-03-03T16:54:17.506Z,101010.34
2023-03-03T16:57:01.364Z,101012.54
2023-03-03T17:00:04.427Z,101008.98
2023-03-03T17:02:58.867Z,101009.30
2023-03-03T17:05:43.658Z,101009.81
2023-03-03T17:08:28.717Z,101010.26
2023-03-03T17:11:02.296Z,101010.77
2023-03-03T17:14:08.000Z,101012.94
2023-03-03T17:16:52.648Z,101017.02
2023-03-03T17:19:44.080Z,101010.29
2023-03-03T17:22:27.707Z,101015.17
2023-03-03T17:25:09.758Z,101013.14
2023-03-03T17:27:57.732Z,101017.34
2023-03-03T17:30:36.752Z,101010.55
2023-03-03T17:33:27.087Z,100999.14
2023-03-03T17:36:18.391Z,101015.36
2023-03-03T17:39:04.250Z,101013.29
2023-03-03T17:41:43.524Z,101004.70
2023-03-03T17:44:26.266Z,101009.94
2023-03-03T17:47:05.878Z,101015.23
2023-03-03T17:49:54.677Z,101013.36
2023-03-03T17:52:59.778Z,101007.59
2023-03-03T17:55:48.649Z,101010.08
2023-03-03T17:58:45.569Z,101010.20
2023-03-03T18:01:29.744Z,101005.25
2023-03-03T18:04:17.496Z,101001.55
2023-03-03T18:07:25.199Z,101004.88
2023-03-03T18:10:14.433Z,101001.59
2023-03-03T18:12:53.618Z,101004.77
2023-03-03T18:16:10.385Z,101002.55
2023-03-03T18:18:59.115Z,101003.17
2023-03-03T18:21:38.875Z,100987.87
2023-03-03T18:24:36.511Z,100985.06
2023-03-03T18:27:33.070Z,100997.52
2023-03-03T18:30:57.868Z,100995.08
2023-03-03T18:33:43.791Z,100991.52
2023-03-03T18:36:39.264Z,100982.91
2023-03-03T18:39:18.466Z,100971.48
2023-03-03T18:42:13.723Z,100972.23
2023-03-03T18:44:47.946Z,100981.70
2023-03-03T18:47:21.202Z,100984.87
2023-03-03T18:49:57.749Z,100982.70
2023-03-03T18:52:32.486Z,100979.96
2023-03-03T18:55:04.789Z,100970.88
2023-03-03T18:57:37.510Z,100975.58
2023-03-03T19:00:23.091Z,100975.05
2023-03-03T19:02:57.868Z,100972.05
2023-03-03T19:05:40.267Z,100969.02
2023-03-03T19:08:25.815Z,100968.41
2023-03-03T19:11:01.037Z,100967.05
2023-03-03T19:13:47.062Z,100968.79
2023-03-03T19:16:36.883Z,100970.98
2023-03-03T19:19:13.342Z,100974.77
2023-03-03T19:21:51.320Z,100966.55
2023-03-03T19:24:34.523Z,100963.46
2023-03-03T19:27:21.072Z,100960.55
2023-03-03T19:30:07.369Z,100962.55
2023-03-03T19:33:10.157Z,100966.03
2023-03-03T19:35:55.947Z,100959.70
2023-03-03T19:38:39.169Z,100965.66
2023-03-03T19:41:23.837Z,100966.86
2023-03-03T19:44:08.929Z,100971.08
2023-03-03T19:46:56.751Z,100967.25
2023-03-03T19:49:47.361Z,100969.09
2023-03-03T19:52:29.393Z,100954.80
2023-03-03T19:55:15.262Z,100963.81
2023-03-03T19:57:58.050Z,100961.45
2023-03-03T20:00:41.237Z,100964.16
2023-03-03T20:03:46.982Z,100963.50
2023-03-03T20:06:23.368Z,100960.81
2023-03-03T20:09:04.035Z,100955.89
2023-03-03T20:11:53.704Z,100950.38
2023-03-03T20:14:50.229Z,100950.31
2023-03-03T20:17:50.333Z,100950.27
2023-03-03T20:20:51.082Z,100945.10
2023-03-03T20:23:29.914Z,100941.10
2023-03-03T20:26:10.272Z,100935.70
2023-03-03T20:28:58.070Z,100927.83
2023-03-03T20:31:39.509Z,100919.70
2023-03-03T20:34:20.404Z,100913.83
2023-03-03T20:37:05.141Z,100911.45
2023-03-03T20:39:52.528Z,100907.84
2023-03-03T20:42:39.697Z,100910.48
2023-03-03T20:45:23.481Z,100894.44
2023-03-03T20:48:10.971Z,100902.16
2023-03-03T20:50:55.024Z,100872.12
2023-03-03T20:53:35.782Z,100891.42
2023-03-03T20:56:17.992Z,100892.71
2023-03-03T20:59:03.605Z,100889.90
2023-03-03T21:01:43.966Z,100887.79
2023-03-03T21:04:25.145Z,100867.64
2023-03-03T21:06:58.210Z,100869.77
2023-03-03T21:09:33.821Z,100866.68
2023-03-03T21:12:26.810Z,100866.65
2023-03-03T21:15:05.567Z,100864.73
2023-03-03T21:17:38.123Z,100864.54
2023-03-03T21:20:27.787Z,100863.38
2023-03-03T21:23:02.094Z,100842.11
2023-03-03T21:25:48.871Z,100848.70
2023-03-03T21:28:24.131Z,100845.95
2023-03-03T21:31:17.363Z,100836.17
2023-03-03T21:33:55.968Z,100834.57
2023-03-03T21:36:48.592Z,100827.14
2023-03-03T21:39:29.989Z,100830.23
2023-03-03T21:42:05.906Z,100826.54
2023-03-03T21:44:41.818Z,100823.23
2023-03-03T21:51:29.847Z,100810.66
2023-03-03T21:54:27.978Z,100809.34
2023-03-03T21:57:00.715Z,100802.60
2023-03-03T21:59:33.314Z,100794.77
2023-03-03T22:02:06.256Z,100787.08
2023-03-03T22:04:41.011Z,100783.64
2023-03-03T22:07:13.856Z,100782.71
2023-03-03T22:09:46.421Z,100776.20
2023-03-03T22:12:21.567Z,100768.11
2023-03-03T22:14:55.304Z,100756.93
2023-03-03T22:17:31.950Z,100745.76
2023-03-03T22:20:05.066Z,100731.48
2023-03-03T22:22:37.538Z,100726.52
2023-03-03T22:25:12.776Z,100723.02
2023-03-03T22:27:45.259Z,100715.78
2023-03-03T22:30:20.095Z,100714.56
2023-03-03T22:32:54.781Z,100721.27
2023-03-03T22:35:27.807Z,100708.67
2023-03-03T22:38:00.436Z,100679.69
2023-03-03T22:40:33.798Z,100695.41
2023-03-03T22:43:06.534Z,100692.52
2023-03-03T22:45:39.624Z,100677.25
2023-03-03T22:48:12.181Z,100685.08
2023-03-03T22:50:45.640Z,100686.34
2023-03-03T22:53:18.022Z,100680.77
2023-03-03T22:55:50.761Z,100669.27
2023-03-03T22:58:25.624Z,100665.73
2023-03-03T23:00:58.023Z,100646.01
2023-03-03T23:03:32.433Z,100666.52
2023-03-03T23:06:05.075Z,100665.49
2023-03-03T23:08:37.495Z,100666.34
2023-03-03T23:11:10.031Z,100667.77
2023-03-03T23:13:42.603Z,100676.48
2023-03-03T23:16:15.601Z,100681.11
2023-03-03T23:18:48.186Z,100675.90
2023-03-03T23:21:20.803Z,100680.63
2023-03-03T23:23:53.191Z,100678.28
2023-03-03T23:26:25.639Z,100673.61
2023-03-03T23:28:58.247Z,100678.39
2023-03-03T23:31:30.791Z,100673.40
2023-03-03T23:34:03.306Z,100673.39
2023-03-03T23:36:36.036Z,100671.16
2023-03-03T23:39:08.631Z,100669.95
2023-03-03T23:41:41.092Z,100673.52
2023-03-03T23:44:14.048Z,100669.67
2023-03-03T23:46:47.166Z,100667.83
2023-03-03T23:49:19.614Z,100663.72
2023-03-03T23:51:52.020Z,100657.16
2023-03-03T23:54:24.378Z,100657.32
2023-03-03T23:56:57.211Z,100650.87
2023-03-03T23:59:32.019Z,100644.79
